sensor_id;sensor_type;location;lat;lon;timestamp;P1;durP1;ratioP1;P2;durP2;ratioP2
8139;SDS011;4111;50.972;7.072;2023-05-19T00:00:57;5.87;;;3.17;;
8139;SDS011;4111;50.972;7.072;2023-05-19T00:03:25;4.63;;;2.50;;
8139;SDS011;4111;50.972;7.072;2023-05-19T00:05:52;3.13;;;2.40;;
8139;SDS011;4111;50.972;7.072;2023-05-19T00:08:19;4.80;;;2.30;;
8139;SDS011;4111;50.972;7.072;2023-05-19T00:10:48;2.83;;;2.00;;
8139;SDS011;4111;50.972;7.072;2023-05-19T00:13:15;5.77;;;2.60;;
8139;SDS011;4111;50.972;7.072;2023-05-19T00:15:42;5.23;;;2.33;;
8139;SDS011;4111;50.972;7.072;2023-05-19T00:18:08;4.13;;;2.17;;
8139;SDS011;4111;50.972;7.072;2023-05-19T00:20:39;5.17;;;2.27;;
8139;SDS011;4111;50.972;7.072;2023-05-19T00:23:05;4.80;;;2.50;;
8139;SDS011;4111;50.972;7.072;2023-05-19T00:25:32;4.77;;;2.33;;
8139;SDS011;4111;50.972;7.072;2023-05-19T00:27:58;6.23;;;2.67;;
8139;SDS011;4111;50.972;7.072;2023-05-19T00:30:25;6.60;;;2.57;;
8139;SDS011;4111;50.972;7.072;2023-05-19T00:32:51;6.30;;;2.53;;
8139;SDS011;4111;50.972;7.072;2023-05-19T00:35:18;5.97;;;2.60;;
8139;SDS011;4111;50.972;7.072;2023-05-19T00:37:45;4.50;;;2.27;;
8139;SDS011;4111;50.972;7.072;2023-05-19T00:40:11;8.87;;;3.20;;
8139;SDS011;4111;50.972;7.072;2023-05-19T00:42:38;4.47;;;2.33;;
8139;SDS011;4111;50.972;7.072;2023-05-19T00:45:06;3.50;;;2.90;;
8139;SDS011;4111;50.972;7.072;2023-05-19T00:47:33;8.67;;;3.03;;
8139;SDS011;4111;50.972;7.072;2023-05-19T00:50:00;5.03;;;2.70;;
8139;SDS011;4111;50.972;7.072;2023-05-19T00:52:26;5.57;;;2.73;;
8139;SDS011;4111;50.972;7.072;2023-05-19T00:54:53;4.67;;;2.67;;
8139;SDS011;4111;50.972;7.072;2023-05-19T00:57:20;5.20;;;2.67;;
8139;SDS011;4111;50.972;7.072;2023-05-19T00:59:47;7.40;;;2.67;;
8139;SDS011;4111;50.972;7.072;2023-05-19T01:02:14;4.87;;;2.97;;
8139;SDS011;4111;50.972;7.072;2023-05-19T01:04:40;4.90;;;2.70;;
8139;SDS011;4111;50.972;7.072;2023-05-19T01:07:08;6.30;;;2.67;;
8139;SDS011;4111;50.972;7.072;2023-05-19T01:09:37;4.97;;;2.90;;
8139;SDS011;4111;50.972;7.072;2023-05-19T01:12:04;6.03;;;3.20;;
8139;SDS011;4111;50.972;7.072;2023-05-19T01:14:31;5.47;;;2.70;;
8139;SDS011;4111;50.972;7.072;2023-05-19T01:19:51;5.80;;;2.37;;
8139;SDS011;4111;50.972;7.072;2023-05-19T01:22:31;5.00;;;2.93;;
8139;SDS011;4111;50.972;7.072;2023-05-19T01:26:15;6.23;;;2.77;;
8139;SDS011;4111;50.972;7.072;2023-05-19T01:30:59;5.13;;;3.07;;
8139;SDS011;4111;50.972;7.072;2023-05-19T01:33:27;4.90;;;2.50;;
8139;SDS011;4111;50.972;7.072;2023-05-19T01:35:56;4.80;;;2.73;;
8139;SDS011;4111;50.972;7.072;2023-05-19T01:38:24;4.17;;;2.43;;
8139;SDS011;4111;50.972;7.072;2023-05-19T01:40:53;4.97;;;2.53;;
8139;SDS011;4111;50.972;7.072;2023-05-19T01:43:23;5.13;;;2.70;;
8139;SDS011;4111;50.972;7.072;2023-05-19T01:45:51;2.97;;;2.40;;
8139;SDS011;4111;50.972;7.072;2023-05-19T01:48:18;5.13;;;3.13;;
8139;SDS011;4111;50.972;7.072;2023-05-19T01:50:45;5.47;;;3.00;;
8139;SDS011;4111;50.972;7.072;2023-05-19T01:53:12;6.53;;;3.23;;
8139;SDS011;4111;50.972;7.072;2023-05-19T01:55:41;6.83;;;2.97;;
8139;SDS011;4111;50.972;7.072;2023-05-19T02:06:58;3.57;;;3.20;;
8139;SDS011;4111;50.972;7.072;2023-05-19T02:12:17;4.30;;;2.77;;
8139;SDS011;4111;50.972;7.072;2023-05-19T02:14:59;4.83;;;3.20;;
8139;SDS011;4111;50.972;7.072;2023-05-19T02:17:31;3.60;;;2.50;;
8139;SDS011;4111;50.972;7.072;2023-05-19T02:20:02;3.87;;;2.97;;
8139;SDS011;4111;50.972;7.072;2023-05-19T02:22:30;3.43;;;2.77;;
8139;SDS011;4111;50.972;7.072;2023-05-19T02:24:57;5.67;;;3.10;;
8139;SDS011;4111;50.972;7.072;2023-05-19T02:27:23;3.97;;;3.00;;
8139;SDS011;4111;50.972;7.072;2023-05-19T02:29:50;3.60;;;2.60;;
8139;SDS011;4111;50.972;7.072;2023-05-19T02:32:16;6.40;;;3.03;;
8139;SDS011;4111;50.972;7.072;2023-05-19T02:34:43;3.27;;;3.00;;
8139;SDS011;4111;50.972;7.072;2023-05-19T02:37:14;4.83;;;3.40;;
8139;SDS011;4111;50.972;7.072;2023-05-19T02:39:41;4.00;;;2.70;;
8139;SDS011;4111;50.972;7.072;2023-05-19T02:42:08;5.70;;;3.10;;
8139;SDS011;4111;50.972;7.072;2023-05-19T02:44:35;4.40;;;2.60;;
8139;SDS011;4111;50.972;7.072;2023-05-19T02:47:01;5.17;;;3.00;;
8139;SDS011;4111;50.972;7.072;2023-05-19T02:49:28;2.90;;;2.50;;
8139;SDS011;4111;50.972;7.072;2023-05-19T02:52:01;5.97;;;2.70;;
8139;SDS011;4111;50.972;7.072;2023-05-19T02:54:31;3.00;;;2.70;;
8139;SDS011;4111;50.972;7.072;2023-05-19T02:56:59;5.60;;;3.17;;
8139;SDS011;4111;50.972;7.072;2023-05-19T02:59:27;2.87;;;2.47;;
8139;SDS011;4111;50.972;7.072;2023-05-19T03:01:55;5.13;;;2.83;;
8139;SDS011;4111;50.972;7.072;2023-05-19T03:04:24;5.93;;;3.00;;
8139;SDS011;4111;50.972;7.072;2023-05-19T03:06:51;4.37;;;2.67;;
8139;SDS011;4111;50.972;7.072;2023-05-19T03:09:19;4.17;;;2.70;;
8139;SDS011;4111;50.972;7.072;2023-05-19T03:11:45;5.03;;;2.87;;
8139;SDS011;4111;50.972;7.072;2023-05-19T03:14:12;4.97;;;3.10;;
8139;SDS011;4111;50.972;7.072;2023-05-19T03:16:39;3.37;;;2.70;;
8139;SDS011;4111;50.972;7.072;2023-05-19T03:19:07;8.80;;;3.20;;
8139;SDS011;4111;50.972;7.072;2023-05-19T03:21:35;4.70;;;3.10;;
8139;SDS011;4111;50.972;7.072;2023-05-19T03:24:01;4.53;;;2.97;;
8139;SDS011;4111;50.972;7.072;2023-05-19T03:26:28;5.10;;;2.73;;
8139;SDS011;4111;50.972;7.072;2023-05-19T03:28:55;4.33;;;3.10;;
8139;SDS011;4111;50.972;7.072;2023-05-19T03:31:21;5.30;;;2.70;;
8139;SDS011;4111;50.972;7.072;2023-05-19T03:33:48;5.20;;;3.20;;
8139;SDS011;4111;50.972;7.072;2023-05-19T03:36:14;3.83;;;2.83;;
8139;SDS011;4111;50.972;7.072;2023-05-19T03:38:40;6.93;;;3.17;;
8139;SDS011;4111;50.972;7.072;2023-05-19T03:41:07;3.53;;;2.70;;
8139;SDS011;4111;50.972;7.072;2023-05-19T03:43:33;4.47;;;3.37;;
8139;SDS011;4111;50.972;7.072;2023-05-19T03:46:00;4.47;;;2.60;;
8139;SDS011;4111;50.972;7.072;2023-05-19T03:48:27;3.93;;;2.80;;
8139;SDS011;4111;50.972;7.072;2023-05-19T03:50:53;5.90;;;3.03;;
8139;SDS011;4111;50.972;7.072;2023-05-19T03:53:20;4.33;;;2.80;;
8139;SDS011;4111;50.972;7.072;2023-05-19T03:55:47;4.33;;;3.10;;
8139;SDS011;4111;50.972;7.072;2023-05-19T03:58:14;4.77;;;2.87;;
8139;SDS011;4111;50.972;7.072;2023-05-19T04:00:41;5.03;;;2.83;;
8139;SDS011;4111;50.972;7.072;2023-05-19T04:03:07;4.57;;;3.13;;
8139;SDS011;4111;50.972;7.072;2023-05-19T04:05:34;5.67;;;3.20;;
8139;SDS011;4111;50.972;7.072;2023-05-19T04:08:01;3.87;;;2.73;;
8139;SDS011;4111;50.972;7.072;2023-05-19T04:10:27;3.97;;;2.80;;
8139;SDS011;4111;50.972;7.072;2023-05-19T04:12:54;4.33;;;2.80;;
8139;SDS011;4111;50.972;7.072;2023-05-19T04:15:20;6.67;;;2.60;;
8139;SDS011;4111;50.972;7.072;2023-05-19T04:17:47;4.50;;;3.07;;
8139;SDS011;4111;50.972;7.072;2023-05-19T04:20:13;3.30;;;2.83;;
8139;SDS011;4111;50.972;7.072;2023-05-19T04:22:40;4.23;;;2.67;;
8139;SDS011;4111;50.972;7.072;2023-05-19T04:25:06;5.17;;;2.87;;
8139;SDS011;4111;50.972;7.072;2023-05-19T04:27:34;5.63;;;3.13;;
8139;SDS011;4111;50.972;7.072;2023-05-19T04:30:04;4.23;;;2.87;;
8139;SDS011;4111;50.972;7.072;2023-05-19T04:32:31;4.00;;;2.90;;
8139;SDS011;4111;50.972;7.072;2023-05-19T04:34:58;4.80;;;2.70;;
8139;SDS011;4111;50.972;7.072;2023-05-19T04:37:25;3.10;;;2.80;;
8139;SDS011;4111;50.972;7.072;2023-05-19T04:39:51;4.93;;;3.20;;
8139;SDS011;4111;50.972;7.072;2023-05-19T04:42:18;6.67;;;3.23;;
8139;SDS011;4111;50.972;7.072;2023-05-19T04:44:44;7.53;;;3.20;;
8139;SDS011;4111;50.972;7.072;2023-05-19T04:47:14;7.67;;;3.70;;
8139;SDS011;4111;50.972;7.072;2023-05-19T04:49:40;5.10;;;2.97;;
8139;SDS011;4111;50.972;7.072;2023-05-19T04:52:07;5.97;;;3.17;;
8139;SDS011;4111;50.972;7.072;2023-05-19T04:54:37;8.27;;;3.03;;
8139;SDS011;4111;50.972;7.072;2023-05-19T04:57:05;5.57;;;3.13;;
8139;SDS011;4111;50.972;7.072;2023-05-19T04:59:32;8.90;;;2.87;;
8139;SDS011;4111;50.972;7.072;2023-05-19T05:01:58;4.33;;;3.20;;
8139;SDS011;4111;50.972;7.072;2023-05-19T05:04:25;4.67;;;3.23;;
8139;SDS011;4111;50.972;7.072;2023-05-19T05:06:51;11.30;;;3.23;;
8139;SDS011;4111;50.972;7.072;2023-05-19T05:09:18;4.23;;;2.90;;
8139;SDS011;4111;50.972;7.072;2023-05-19T05:11:45;5.77;;;2.83;;
8139;SDS011;4111;50.972;7.072;2023-05-19T05:14:11;5.83;;;3.03;;
8139;SDS011;4111;50.972;7.072;2023-05-19T05:16:38;5.90;;;3.27;;
8139;SDS011;4111;50.972;7.072;2023-05-19T05:19:05;4.17;;;2.67;;
8139;SDS011;4111;50.972;7.072;2023-05-19T05:21:32;3.53;;;3.03;;
8139;SDS011;4111;50.972;7.072;2023-05-19T05:23:59;6.00;;;3.13;;
8139;SDS011;4111;50.972;7.072;2023-05-19T05:26:27;4.47;;;2.93;;
8139;SDS011;4111;50.972;7.072;2023-05-19T05:28:55;3.67;;;2.93;;
8139;SDS011;4111;50.972;7.072;2023-05-19T05:31:22;5.83;;;3.17;;
8139;SDS011;4111;50.972;7.072;2023-05-19T05:33:48;5.40;;;2.50;;
8139;SDS011;4111;50.972;7.072;2023-05-19T05:36:15;5.47;;;2.90;;
8139;SDS011;4111;50.972;7.072;2023-05-19T05:38:41;5.87;;;2.97;;
8139;SDS011;4111;50.972;7.072;2023-05-19T05:41:09;4.60;;;2.47;;
8139;SDS011;4111;50.972;7.072;2023-05-19T05:43:35;5.70;;;2.53;;
8139;SDS011;4111;50.972;7.072;2023-05-19T05:46:01;8.10;;;2.60;;
8139;SDS011;4111;50.972;7.072;2023-05-19T05:48:28;6.03;;;2.73;;
8139;SDS011;4111;50.972;7.072;2023-05-19T05:50:55;5.07;;;2.50;;
8139;SDS011;4111;50.972;7.072;2023-05-19T05:53:23;4.90;;;2.37;;
8139;SDS011;4111;50.972;7.072;2023-05-19T05:55:51;3.70;;;2.43;;
8139;SDS011;4111;50.972;7.072;2023-05-19T05:58:18;3.43;;;2.27;;
8139;SDS011;4111;50.972;7.072;2023-05-19T06:00:46;6.47;;;2.23;;
8139;SDS011;4111;50.972;7.072;2023-05-19T06:03:14;3.13;;;2.40;;
8139;SDS011;4111;50.972;7.072;2023-05-19T06:05:41;5.53;;;2.83;;
8139;SDS011;4111;50.972;7.072;2023-05-19T06:08:08;6.20;;;2.43;;
8139;SDS011;4111;50.972;7.072;2023-05-19T06:10:34;6.57;;;2.75;;
8139;SDS011;4111;50.972;7.072;2023-05-19T06:13:04;8.10;;;2.83;;
8139;SDS011;4111;50.972;7.072;2023-05-19T06:15:30;8.80;;;2.60;;
8139;SDS011;4111;50.972;7.072;2023-05-19T06:17:57;2.87;;;2.30;;
8139;SDS011;4111;50.972;7.072;2023-05-19T06:20:24;7.90;;;2.70;;
8139;SDS011;4111;50.972;7.072;2023-05-19T06:22:51;4.53;;;2.83;;
8139;SDS011;4111;50.972;7.072;2023-05-19T06:25:17;5.50;;;2.37;;
8139;SDS011;4111;50.972;7.072;2023-05-19T06:27:45;7.17;;;2.60;;
8139;SDS011;4111;50.972;7.072;2023-05-19T06:30:12;5.03;;;2.50;;
8139;SDS011;4111;50.972;7.072;2023-05-19T06:32:38;5.20;;;2.37;;
8139;SDS011;4111;50.972;7.072;2023-05-19T06:35:05;4.43;;;2.37;;
8139;SDS011;4111;50.972;7.072;2023-05-19T06:37:32;5.00;;;2.57;;
8139;SDS011;4111;50.972;7.072;2023-05-19T06:39:58;6.60;;;2.43;;
8139;SDS011;4111;50.972;7.072;2023-05-19T06:42:25;8.00;;;2.80;;
8139;SDS011;4111;50.972;7.072;2023-05-19T06:44:52;9.30;;;3.97;;
8139;SDS011;4111;50.972;7.072;2023-05-19T06:47:18;5.20;;;2.77;;
8139;SDS011;4111;50.972;7.072;2023-05-19T06:49:45;4.77;;;2.43;;
8139;SDS011;4111;50.972;7.072;2023-05-19T06:52:11;7.50;;;2.50;;
8139;SDS011;4111;50.972;7.072;2023-05-19T06:54:38;7.37;;;2.10;;
8139;SDS011;4111;50.972;7.072;2023-05-19T06:57:04;2.57;;;1.87;;
8139;SDS011;4111;50.972;7.072;2023-05-19T06:59:31;7.00;;;2.07;;
8139;SDS011;4111;50.972;7.072;2023-05-19T07:01:58;5.17;;;2.00;;
8139;SDS011;4111;50.972;7.072;2023-05-19T07:04:24;5.90;;;2.40;;
8139;SDS011;4111;50.972;7.072;2023-05-19T07:06:51;2.93;;;2.10;;
8139;SDS011;4111;50.972;7.072;2023-05-19T07:09:18;6.33;;;2.17;;
8139;SDS011;4111;50.972;7.072;2023-05-19T07:11:45;4.90;;;2.00;;
8139;SDS011;4111;50.972;7.072;2023-05-19T07:14:11;6.93;;;2.37;;
8139;SDS011;4111;50.972;7.072;2023-05-19T07:16:38;7.87;;;2.33;;
8139;SDS011;4111;50.972;7.072;2023-05-19T07:19:04;3.77;;;2.10;;
8139;SDS011;4111;50.972;7.072;2023-05-19T07:21:31;7.03;;;2.13;;
8139;SDS011;4111;50.972;7.072;2023-05-19T07:23:57;6.13;;;1.90;;
8139;SDS011;4111;50.972;7.072;2023-05-19T07:26:24;7.63;;;2.20;;
8139;SDS011;4111;50.972;7.072;2023-05-19T07:28:51;5.87;;;1.97;;
8139;SDS011;4111;50.972;7.072;2023-05-19T07:31:18;5.43;;;2.10;;
8139;SDS011;4111;50.972;7.072;2023-05-19T07:33:44;4.60;;;2.00;;
8139;SDS011;4111;50.972;7.072;2023-05-19T07:36:11;3.53;;;1.87;;
8139;SDS011;4111;50.972;7.072;2023-05-19T07:38:37;4.10;;;1.93;;
8139;SDS011;4111;50.972;7.072;2023-05-19T07:41:04;4.60;;;1.83;;
8139;SDS011;4111;50.972;7.072;2023-05-19T07:43:31;3.47;;;1.80;;
8139;SDS011;4111;50.972;7.072;2023-05-19T07:45:57;22.53;;;5.50;;
8139;SDS011;4111;50.972;7.072;2023-05-19T07:48:24;6.50;;;2.90;;
8139;SDS011;4111;50.972;7.072;2023-05-19T07:50:51;5.53;;;2.37;;
8139;SDS011;4111;50.972;7.072;2023-05-19T07:53:18;13.57;;;3.40;;
8139;SDS011;4111;50.972;7.072;2023-05-19T07:55:45;4.03;;;1.97;;
8139;SDS011;4111;50.972;7.072;2023-05-19T07:58:11;6.20;;;2.37;;
8139;SDS011;4111;50.972;7.072;2023-05-19T08:00:38;8.90;;;2.83;;
8139;SDS011;4111;50.972;7.072;2023-05-19T08:03:06;5.00;;;2.33;;
8139;SDS011;4111;50.972;7.072;2023-05-19T08:05:33;5.47;;;2.40;;
8139;SDS011;4111;50.972;7.072;2023-05-19T08:08:00;4.37;;;2.20;;
8139;SDS011;4111;50.972;7.072;2023-05-19T08:10:27;6.37;;;2.10;;
8139;SDS011;4111;50.972;7.072;2023-05-19T08:12:54;5.27;;;2.50;;
8139;SDS011;4111;50.972;7.072;2023-05-19T08:15:21;8.77;;;2.03;;
8139;SDS011;4111;50.972;7.072;2023-05-19T08:17:47;4.20;;;1.80;;
8139;SDS011;4111;50.972;7.072;2023-05-19T08:20:14;4.03;;;2.10;;
8139;SDS011;4111;50.972;7.072;2023-05-19T08:22:40;3.77;;;1.80;;
8139;SDS011;4111;50.972;7.072;2023-05-19T08:25:07;8.13;;;2.10;;
8139;SDS011;4111;50.972;7.072;2023-05-19T08:27:34;5.87;;;2.07;;
8139;SDS011;4111;50.972;7.072;2023-05-19T08:30:01;5.87;;;2.10;;
8139;SDS011;4111;50.972;7.072;2023-05-19T08:32:27;6.90;;;2.20;;
8139;SDS011;4111;50.972;7.072;2023-05-19T08:34:54;3.87;;;1.90;;
8139;SDS011;4111;50.972;7.072;2023-05-19T08:37:20;4.47;;;2.23;;
8139;SDS011;4111;50.972;7.072;2023-05-19T08:39:47;6.47;;;2.30;;
8139;SDS011;4111;50.972;7.072;2023-05-19T08:42:13;7.60;;;2.20;;
8139;SDS011;4111;50.972;7.072;2023-05-19T08:44:40;7.00;;;2.00;;
8139;SDS011;4111;50.972;7.072;2023-05-19T08:47:09;4.50;;;2.17;;
8139;SDS011;4111;50.972;7.072;2023-05-19T08:49:42;5.47;;;2.20;;
8139;SDS011;4111;50.972;7.072;2023-05-19T08:55:17;6.17;;;2.30;;
8139;SDS011;4111;50.972;7.072;2023-05-19T08:57:54;3.87;;;2.07;;
8139;SDS011;4111;50.972;7.072;2023-05-19T09:00:21;4.60;;;2.00;;
8139;SDS011;4111;50.972;7.072;2023-05-19T09:02:48;4.83;;;2.17;;
8139;SDS011;4111;50.972;7.072;2023-05-19T09:05:36;4.87;;;2.03;;
8139;SDS011;4111;50.972;7.072;2023-05-19T09:08:04;6.77;;;2.17;;
8139;SDS011;4111;50.972;7.072;2023-05-19T09:10:30;6.53;;;2.10;;
8139;SDS011;4111;50.972;7.072;2023-05-19T09:12:56;4.83;;;2.20;;
8139;SDS011;4111;50.972;7.072;2023-05-19T09:15:25;3.50;;;2.00;;
8139;SDS011;4111;50.972;7.072;2023-05-19T09:18:09;8.87;;;2.33;;
8139;SDS011;4111;50.972;7.072;2023-05-19T09:20:41;4.50;;;1.83;;
8139;SDS011;4111;50.972;7.072;2023-05-19T09:23:12;5.27;;;2.00;;
8139;SDS011;4111;50.972;7.072;2023-05-19T09:25:48;9.83;;;1.93;;
8139;SDS011;4111;50.972;7.072;2023-05-19T09:28:22;6.43;;;1.93;;
8139;SDS011;4111;50.972;7.072;2023-05-19T09:33:31;4.73;;;2.07;;
8139;SDS011;4111;50.972;7.072;2023-05-19T09:36:02;4.37;;;2.07;;
8139;SDS011;4111;50.972;7.072;2023-05-19T09:38:31;4.33;;;1.93;;
8139;SDS011;4111;50.972;7.072;2023-05-19T09:40:58;3.47;;;2.00;;
8139;SDS011;4111;50.972;7.072;2023-05-19T09:43:29;4.77;;;2.00;;
8139;SDS011;4111;50.972;7.072;2023-05-19T09:46:01;6.10;;;2.27;;
8139;SDS011;4111;50.972;7.072;2023-05-19T09:48:29;3.63;;;2.17;;
8139;SDS011;4111;50.972;7.072;2023-05-19T09:50:56;4.07;;;1.73;;
8139;SDS011;4111;50.972;7.072;2023-05-19T09:53:23;4.77;;;2.37;;
8139;SDS011;4111;50.972;7.072;2023-05-19T09:55:56;3.70;;;2.53;;
8139;SDS011;4111;50.972;7.072;2023-05-19T09:58:23;6.50;;;1.83;;
8139;SDS011;4111;50.972;7.072;2023-05-19T10:00:50;4.33;;;1.90;;
8139;SDS011;4111;50.972;7.072;2023-05-19T10:03:17;5.40;;;2.13;;
8139;SDS011;4111;50.972;7.072;2023-05-19T10:05:44;3.87;;;2.07;;
8139;SDS011;4111;50.972;7.072;2023-05-19T10:08:12;5.30;;;1.97;;
8139;SDS011;4111;50.972;7.072;2023-05-19T10:10:39;6.07;;;2.10;;
8139;SDS011;4111;50.972;7.072;2023-05-19T10:13:06;3.37;;;2.00;;
8139;SDS011;4111;50.972;7.072;2023-05-19T10:15:33;4.00;;;2.23;;
8139;SDS011;4111;50.972;7.072;2023-05-19T10:18:08;4.00;;;2.10;;
8139;SDS011;4111;50.972;7.072;2023-05-19T10:20:37;5.17;;;2.30;;
8139;SDS011;4111;50.972;7.072;2023-05-19T10:23:05;8.00;;;2.00;;
8139;SDS011;4111;50.972;7.072;2023-05-19T10:25:31;2.97;;;1.80;;
8139;SDS011;4111;50.972;7.072;2023-05-19T10:28:07;3.00;;;2.10;;
8139;SDS011;4111;50.972;7.072;2023-05-19T10:30:39;4.03;;;2.10;;
8139;SDS011;4111;50.972;7.072;2023-05-19T10:33:11;5.00;;;2.10;;
8139;SDS011;4111;50.972;7.072;2023-05-19T10:40:50;4.33;;;2.30;;
8139;SDS011;4111;50.972;7.072;2023-05-19T10:43:30;4.87;;;1.93;;
8139;SDS011;4111;50.972;7.072;2023-05-19T10:46:05;5.50;;;2.20;;
8139;SDS011;4111;50.972;7.072;2023-05-19T10:48:32;5.83;;;2.10;;
8139;SDS011;4111;50.972;7.072;2023-05-19T10:51:02;4.50;;;2.10;;
8139;SDS011;4111;50.972;7.072;2023-05-19T10:53:30;6.67;;;2.33;;
8139;SDS011;4111;50.972;7.072;2023-05-19T10:55:58;6.63;;;2.53;;
8139;SDS011;4111;50.972;7.072;2023-05-19T10:58:36;3.70;;;2.13;;
8139;SDS011;4111;50.972;7.072;2023-05-19T11:01:21;3.87;;;1.80;;
8139;SDS011;4111;50.972;7.072;2023-05-19T11:03:53;6.37;;;2.03;;
8139;SDS011;4111;50.972;7.072;2023-05-19T11:06:26;6.23;;;2.20;;
8139;SDS011;4111;50.972;7.072;2023-05-19T11:11:23;2.60;;;1.80;;
8139;SDS011;4111;50.972;7.072;2023-05-19T11:13:50;6.90;;;2.80;;
8139;SDS011;4111;50.972;7.072;2023-05-19T11:16:33;4.37;;;2.00;;
8139;SDS011;4111;50.972;7.072;2023-05-19T11:19:00;4.63;;;2.10;;
8139;SDS011;4111;50.972;7.072;2023-05-19T11:22:10;5.20;;;2.10;;
8139;SDS011;4111;50.972;7.072;2023-05-19T11:24:33;3.10;;;2.17;;
8139;SDS011;4111;50.972;7.072;2023-05-19T11:27:50;4.87;;;2.17;;
8139;SDS011;4111;50.972;7.072;2023-05-19T11:32:36;3.77;;;2.20;;
8139;SDS011;4111;50.972;7.072;2023-05-19T11:35:09;6.50;;;2.37;;
8139;SDS011;4111;50.972;7.072;2023-05-19T11:37:36;5.00;;;1.97;;
8139;SDS011;4111;50.972;7.072;2023-05-19T11:40:03;4.23;;;2.00;;
8139;SDS011;4111;50.972;7.072;2023-05-19T11:42:32;6.23;;;2.00;;
8139;SDS011;4111;50.972;7.072;2023-05-19T11:45:03;4.77;;;2.20;;
8139;SDS011;4111;50.972;7.072;2023-05-19T11:47:30;3.33;;;2.27;;
8139;SDS011;4111;50.972;7.072;2023-05-19T11:50:17;4.93;;;2.30;;
8139;SDS011;4111;50.972;7.072;2023-05-19T11:52:44;8.50;;;2.40;;
8139;SDS011;4111;50.972;7.072;2023-05-19T11:55:14;3.63;;;2.13;;
8139;SDS011;4111;50.972;7.072;2023-05-19T11:57:49;6.63;;;2.23;;
8139;SDS011;4111;50.972;7.072;2023-05-19T12:00:37;7.07;;;2.13;;
8139;SDS011;4111;50.972;7.072;2023-05-19T12:03:05;3.67;;;2.00;;
8139;SDS011;4111;50.972;7.072;2023-05-19T12:05:35;3.87;;;2.20;;
8139;SDS011;4111;50.972;7.072;2023-05-19T12:08:08;4.23;;;1.93;;
8139;SDS011;4111;50.972;7.072;2023-05-19T12:10:34;8.70;;;2.47;;
8139;SDS011;4111;50.972;7.072;2023-05-19T12:13:01;8.00;;;2.13;;
8139;SDS011;4111;50.972;7.072;2023-05-19T12:15:29;3.90;;;2.10;;
8139;SDS011;4111;50.972;7.072;2023-05-19T12:17:57;6.50;;;2.07;;
8139;SDS011;4111;50.972;7.072;2023-05-19T12:20:26;2.83;;;1.80;;
8139;SDS011;4111;50.972;7.072;2023-05-19T12:22:54;3.07;;;2.10;;
8139;SDS011;4111;50.972;7.072;2023-05-19T12:25:21;3.20;;;1.77;;
8139;SDS011;4111;50.972;7.072;2023-05-19T12:27:48;3.63;;;1.77;;
8139;SDS011;4111;50.972;7.072;2023-05-19T12:30:17;8.73;;;2.43;;
8139;SDS011;4111;50.972;7.072;2023-05-19T12:32:52;2.70;;;1.73;;
8139;SDS011;4111;50.972;7.072;2023-05-19T12:35:19;5.70;;;1.90;;
8139;SDS011;4111;50.972;7.072;2023-05-19T12:37:48;4.50;;;1.90;;
8139;SDS011;4111;50.972;7.072;2023-05-19T12:40:15;4.13;;;1.80;;
8139;SDS011;4111;50.972;7.072;2023-05-19T12:42:45;4.40;;;2.10;;
8139;SDS011;4111;50.972;7.072;2023-05-19T12:45:13;4.37;;;1.80;;
8139;SDS011;4111;50.972;7.072;2023-05-19T12:47:40;6.20;;;2.00;;
8139;SDS011;4111;50.972;7.072;2023-05-19T12:50:08;4.63;;;2.03;;
8139;SDS011;4111;50.972;7.072;2023-05-19T12:52:42;3.00;;;2.00;;
8139;SDS011;4111;50.972;7.072;2023-05-19T12:55:11;4.47;;;2.03;;
8139;SDS011;4111;50.972;7.072;2023-05-19T12:57:40;6.30;;;2.30;;
8139;SDS011;4111;50.972;7.072;2023-05-19T13:00:12;5.53;;;2.30;;
8139;SDS011;4111;50.972;7.072;2023-05-19T13:05:30;3.90;;;2.00;;
8139;SDS011;4111;50.972;7.072;2023-05-19T13:08:05;3.13;;;1.87;;
8139;SDS011;4111;50.972;7.072;2023-05-19T13:10:34;7.37;;;2.20;;
8139;SDS011;4111;50.972;7.072;2023-05-19T13:13:02;6.57;;;1.90;;
8139;SDS011;4111;50.972;7.072;2023-05-19T13:15:30;5.33;;;2.03;;
8139;SDS011;4111;50.972;7.072;2023-05-19T13:18:04;5.83;;;2.10;;
8139;SDS011;4111;50.972;7.072;2023-05-19T13:20:31;5.27;;;2.00;;
8139;SDS011;4111;50.972;7.072;2023-05-19T13:23:01;4.23;;;1.80;;
8139;SDS011;4111;50.972;7.072;2023-05-19T13:25:28;3.80;;;1.87;;
8139;SDS011;4111;50.972;7.072;2023-05-19T13:27:54;5.87;;;2.00;;
8139;SDS011;4111;50.972;7.072;2023-05-19T13:30:21;5.77;;;2.30;;
8139;SDS011;4111;50.972;7.072;2023-05-19T13:32:48;4.00;;;2.10;;
8139;SDS011;4111;50.972;7.072;2023-05-19T13:35:17;4.50;;;2.13;;
8139;SDS011;4111;50.972;7.072;2023-05-19T13:37:44;5.70;;;2.40;;
8139;SDS011;4111;50.972;7.072;2023-05-19T13:40:12;3.80;;;2.00;;
8139;SDS011;4111;50.972;7.072;2023-05-19T13:42:39;6.87;;;2.10;;
8139;SDS011;4111;50.972;7.072;2023-05-19T13:45:06;4.80;;;2.00;;
8139;SDS011;4111;50.972;7.072;2023-05-19T13:47:33;4.10;;;2.07;;
8139;SDS011;4111;50.972;7.072;2023-05-19T13:50:01;6.30;;;1.90;;
8139;SDS011;4111;50.972;7.072;2023-05-19T13:52:29;3.80;;;1.90;;
8139;SDS011;4111;50.972;7.072;2023-05-19T13:54:56;3.47;;;2.23;;
8139;SDS011;4111;50.972;7.072;2023-05-19T13:57:22;2.83;;;1.80;;
8139;SDS011;4111;50.972;7.072;2023-05-19T13:59:49;3.67;;;1.90;;
8139;SDS011;4111;50.972;7.072;2023-05-19T14:02:28;4.63;;;2.00;;
8139;SDS011;4111;50.972;7.072;2023-05-19T14:04:55;2.78;;;1.77;;
8139;SDS011;4111;50.972;7.072;2023-05-19T14:07:22;4.20;;;2.13;;
8139;SDS011;4111;50.972;7.072;2023-05-19T14:09:49;5.53;;;1.70;;
8139;SDS011;4111;50.972;7.072;2023-05-19T14:12:17;6.90;;;2.10;;
8139;SDS011;4111;50.972;7.072;2023-05-19T14:14:44;4.88;;;2.25;;
8139;SDS011;4111;50.972;7.072;2023-05-19T14:17:10;4.25;;;2.10;;
8139;SDS011;4111;50.972;7.072;2023-05-19T14:19:37;2.38;;;1.63;;
8139;SDS011;4111;50.972;7.072;2023-05-19T14:22:04;2.90;;;1.80;;
8139;SDS011;4111;50.972;7.072;2023-05-19T14:24:31;3.53;;;1.67;;
8139;SDS011;4111;50.972;7.072;2023-05-19T14:26:57;3.20;;;2.10;;
8139;SDS011;4111;50.972;7.072;2023-05-19T14:29:24;2.47;;;1.77;;
8139;SDS011;4111;50.972;7.072;2023-05-19T14:31:50;6.10;;;2.10;;
8139;SDS011;4111;50.972;7.072;2023-05-19T14:34:17;4.32;;;1.65;;
8139;SDS011;4111;50.972;7.072;2023-05-19T14:36:46;3.53;;;2.00;;
8139;SDS011;4111;50.972;7.072;2023-05-19T14:39:13;3.38;;;2.08;;
8139;SDS011;4111;50.972;7.072;2023-05-19T14:41:40;2.92;;;1.77;;
8139;SDS011;4111;50.972;7.072;2023-05-19T14:44:06;4.07;;;1.80;;
8139;SDS011;4111;50.972;7.072;2023-05-19T14:46:33;2.83;;;2.00;;
8139;SDS011;4111;50.972;7.072;2023-05-19T14:48:59;4.13;;;1.70;;
8139;SDS011;4111;50.972;7.072;2023-05-19T14:51:26;2.63;;;1.85;;
8139;SDS011;4111;50.972;7.072;2023-05-19T14:53:52;4.70;;;1.70;;
8139;SDS011;4111;50.972;7.072;2023-05-19T14:56:19;4.27;;;1.90;;
8139;SDS011;4111;50.972;7.072;2023-05-19T14:58:47;6.37;;;2.20;;
8139;SDS011;4111;50.972;7.072;2023-05-19T15:01:13;3.58;;;1.88;;
8139;SDS011;4111;50.972;7.072;2023-05-19T15:03:39;4.27;;;2.27;;
8139;SDS011;4111;50.972;7.072;2023-05-19T15:06:07;2.80;;;1.90;;
8139;SDS011;4111;50.972;7.072;2023-05-19T15:08:35;6.22;;;1.95;;
8139;SDS011;4111;50.972;7.072;2023-05-19T15:11:03;5.88;;;1.67;;
8139;SDS011;4111;50.972;7.072;2023-05-19T15:13:29;3.50;;;1.70;;
8139;SDS011;4111;50.972;7.072;2023-05-19T15:15:56;3.35;;;1.80;;
8139;SDS011;4111;50.972;7.072;2023-05-19T15:18:41;3.67;;;1.75;;
8139;SDS011;4111;50.972;7.072;2023-05-19T15:21:08;3.37;;;1.80;;
8139;SDS011;4111;50.972;7.072;2023-05-19T15:23:35;3.28;;;1.90;;
8139;SDS011;4111;50.972;7.072;2023-05-19T15:26:01;3.72;;;1.58;;
8139;SDS011;4111;50.972;7.072;2023-05-19T15:28:28;4.30;;;1.90;;
8139;SDS011;4111;50.972;7.072;2023-05-19T15:30:54;2.75;;;1.60;;
8139;SDS011;4111;50.972;7.072;2023-05-19T15:33:21;2.25;;;1.77;;
8139;SDS011;4111;50.972;7.072;2023-05-19T15:35:47;5.30;;;1.80;;
8139;SDS011;4111;50.972;7.072;2023-05-19T15:38:19;4.80;;;1.70;;
8139;SDS011;4111;50.972;7.072;2023-05-19T15:40:46;3.60;;;1.80;;
8139;SDS011;4111;50.972;7.072;2023-05-19T15:43:12;5.30;;;1.98;;
8139;SDS011;4111;50.972;7.072;2023-05-19T15:45:39;5.13;;;1.77;;
8139;SDS011;4111;50.972;7.072;2023-05-19T15:48:06;4.95;;;2.20;;
8139;SDS011;4111;50.972;7.072;2023-05-19T15:50:32;4.38;;;1.80;;
8139;SDS011;4111;50.972;7.072;2023-05-19T15:52:59;3.72;;;1.92;;
8139;SDS011;4111;50.972;7.072;2023-05-19T15:55:26;2.13;;;1.93;;
8139;SDS011;4111;50.972;7.072;2023-05-19T15:57:52;5.13;;;2.00;;